createdAt,value
2019-01-10T00:01:14.565Z,3.83
2019-01-10T00:03:45.014Z,3.67
2019-01-10T00:06:15.584Z,3.17
2019-01-10T00:08:45.942Z,3.33
2019-01-10T00:11:17.657Z,3.50
2019-01-10T00:13:47.958Z,3.20
2019-01-10T00:16:18.608Z,2.92
2019-01-10T00:18:50.432Z,3.50
2019-01-10T00:21:21.037Z,4.20
2019-01-10T00:23:51.526Z,3.10
2019-01-10T00:26:22.370Z,3.53
2019-01-10T00:28:54.460Z,5.00
2019-01-10T00:31:24.865Z,4.37
2019-01-10T00:33:55.547Z,3.77
2019-01-10T00:36:25.898Z,4.10
2019-01-10T00:38:56.310Z,5.00
2019-01-10T00:41:26.806Z,4.63
2019-01-10T00:43:57.233Z,5.03
2019-01-10T00:46:27.606Z,3.87
2019-01-10T00:48:58.150Z,4.10
2019-01-10T00:51:30.019Z,3.53
2019-01-10T00:54:00.308Z,3.63
2019-01-10T00:56:30.606Z,3.63
2019-01-10T00:59:02.909Z,4.20
2019-01-10T01:01:33.262Z,3.37
2019-01-10T01:04:06.175Z,3.84
2019-01-10T01:06:37.577Z,3.27
2019-01-10T01:09:09.250Z,3.37
2019-01-10T01:11:39.861Z,3.83
2019-01-10T01:14:10.459Z,3.43
2019-01-10T01:16:40.755Z,2.97
2019-01-10T01:19:12.703Z,3.20
2019-01-10T01:21:45.469Z,3.43
2019-01-10T01:24:15.679Z,3.70
2019-01-10T01:26:46.008Z,3.73
2019-01-10T01:29:18.577Z,3.70
2019-01-10T01:31:48.964Z,3.47
2019-01-10T01:34:19.490Z,3.60
2019-01-10T01:36:50.014Z,3.10
2019-01-10T01:39:20.427Z,3.27
2019-01-10T01:41:51.231Z,3.47
2019-01-10T01:44:21.750Z,4.57
2019-01-10T01:46:52.689Z,3.20
2019-01-10T01:49:23.218Z,3.50
2019-01-10T01:51:55.041Z,3.60
2019-01-10T01:54:25.372Z,4.40
2019-01-10T01:56:57.455Z,3.40
2019-01-10T01:59:27.744Z,3.83
2019-01-10T02:01:58.337Z,2.90
2019-01-10T02:04:28.753Z,4.47
2019-01-10T02:07:00.245Z,3.50
2019-01-10T02:09:32.114Z,3.70
2019-01-10T02:12:03.209Z,3.22
2019-01-10T02:14:33.733Z,2.83
2019-01-10T02:17:04.101Z,3.92
2019-01-10T02:19:34.422Z,3.40
2019-01-10T02:22:05.943Z,3.02
2019-01-10T02:24:36.373Z,3.43
2019-01-10T02:27:06.945Z,3.23
2019-01-10T02:29:37.255Z,2.90
2019-01-10T02:32:07.948Z,3.93
2019-01-10T02:34:40.028Z,4.10
2019-01-10T02:37:10.295Z,3.60
2019-01-10T02:39:40.716Z,4.40
2019-01-10T02:42:11.193Z,5.10
2019-01-10T02:44:41.773Z,4.70
2019-01-10T02:47:13.563Z,3.50
2019-01-10T02:49:43.860Z,3.92
2019-01-10T02:52:14.402Z,3.67
2019-01-10T02:54:45.896Z,4.05
2019-01-10T02:57:16.243Z,3.80
2019-01-10T02:59:48.667Z,4.18
2019-01-10T03:02:18.914Z,3.70
2019-01-10T03:04:51.605Z,4.55
2019-01-10T03:07:21.931Z,4.00
2019-01-10T03:09:52.439Z,3.43
2019-01-10T03:12:22.812Z,4.23
2019-01-10T03:14:54.819Z,3.40
2019-01-10T03:17:26.927Z,3.40
2019-01-10T03:19:59.599Z,3.40
2019-01-10T03:22:31.587Z,3.60
2019-01-10T03:25:04.330Z,4.00
2019-01-10T03:27:36.792Z,3.60
2019-01-10T03:30:09.706Z,3.23
2019-01-10T03:32:40.001Z,3.63
2019-01-10T03:35:13.486Z,3.30
2019-01-10T03:37:43.795Z,2.90
2019-01-10T03:40:17.655Z,3.30
2019-01-10T03:42:48.042Z,3.50
2019-01-10T03:45:20.505Z,3.63
2019-01-10T03:47:50.868Z,3.47
2019-01-10T03:50:21.529Z,3.10
2019-01-10T03:52:53.516Z,3.25
2019-01-10T03:55:23.856Z,3.40
2019-01-10T03:57:54.680Z,3.58
2019-01-10T04:00:25.969Z,3.97
2019-01-10T04:02:56.485Z,3.00
2019-01-10T04:05:26.933Z,3.30
2019-01-10T04:07:59.231Z,3.23
2019-01-10T04:10:29.805Z,3.33
2019-01-10T04:13:00.413Z,3.33
2019-01-10T04:15:30.755Z,3.57
2019-01-10T04:18:01.628Z,4.33
2019-01-10T04:20:31.987Z,3.70
2019-01-10T04:23:02.512Z,4.10
2019-01-10T04:25:32.823Z,3.43
2019-01-10T04:28:05.330Z,3.52
2019-01-10T04:30:37.097Z,3.47
2019-01-10T04:33:07.692Z,2.90
2019-01-10T04:35:38.122Z,3.83
2019-01-10T04:38:09.912Z,4.20
2019-01-10T04:40:40.524Z,3.70
2019-01-10T04:43:11.340Z,3.53
2019-01-10T04:45:42.637Z,3.87
2019-01-10T04:48:12.919Z,3.90
2019-01-10T04:50:43.475Z,3.80
2019-01-10T04:53:13.821Z,3.47
2019-01-10T04:55:44.473Z,4.00
2019-01-10T04:58:14.764Z,3.70
2019-01-10T05:00:45.525Z,3.22
2019-01-10T05:03:15.820Z,3.07
2019-01-10T05:05:46.730Z,3.10
2019-01-10T05:08:17.080Z,2.90
2019-01-10T05:10:47.889Z,2.98
2019-01-10T05:13:21.309Z,3.20
2019-01-10T05:15:51.792Z,3.40
2019-01-10T05:18:22.107Z,3.47
2019-01-10T05:20:53.767Z,3.50
2019-01-10T05:23:24.354Z,3.47
2019-01-10T05:25:55.906Z,3.40
2019-01-10T05:28:26.205Z,4.30
2019-01-10T05:30:56.843Z,4.10
2019-01-10T05:33:27.207Z,4.00
2019-01-10T05:35:58.006Z,3.70
2019-01-10T05:38:29.612Z,3.53
2019-01-10T05:40:59.933Z,3.90
2019-01-10T05:43:30.546Z,3.53
2019-01-10T05:46:00.839Z,3.37
2019-01-10T05:48:31.702Z,3.98
2019-01-10T05:51:04.973Z,3.70
2019-01-10T05:53:35.678Z,3.75
2019-01-10T05:56:15.005Z,3.83
2019-01-10T05:58:38.294Z,3.67
2019-01-10T06:01:08.594Z,4.20
2019-01-10T06:03:39.641Z,4.00
2019-01-10T06:06:09.968Z,4.73
2019-01-10T06:08:40.486Z,4.47
2019-01-10T06:11:10.840Z,4.93
2019-01-10T06:13:41.245Z,5.58
2019-01-10T06:16:11.749Z,4.37
2019-01-10T06:18:43.302Z,4.50
2019-01-10T06:21:13.601Z,5.33
2019-01-10T06:23:45.118Z,4.00
2019-01-10T06:26:15.438Z,3.87
2019-01-10T06:28:47.146Z,4.37
2019-01-10T06:31:17.661Z,4.97
2019-01-10T06:33:49.399Z,5.90
2019-01-10T06:36:22.088Z,4.47
2019-01-10T06:38:52.694Z,3.67
2019-01-10T06:41:23.432Z,3.70
2019-01-10T06:43:54.149Z,4.10
2019-01-10T06:46:24.774Z,4.00
2019-01-10T06:48:55.190Z,3.97
2019-01-10T06:51:25.756Z,4.10
2019-01-10T06:56:46.308Z,4.13
2019-01-10T07:01:44.419Z,3.87
2019-01-10T07:04:14.775Z,4.30
2019-01-10T07:06:45.093Z,4.03
2019-01-10T07:09:15.670Z,3.80
2019-01-10T07:11:45.980Z,4.07
2019-01-10T07:14:17.251Z,4.45
2019-01-10T07:16:53.487Z,3.57
2019-01-10T07:19:44.853Z,3.86
2019-01-10T07:22:18.328Z,4.85
2019-01-10T07:24:52.670Z,4.33
2019-01-10T07:27:23.205Z,4.47
2019-01-10T07:29:59.674Z,3.97
2019-01-10T07:32:32.145Z,4.65
2019-01-10T07:35:05.467Z,4.33
2019-01-10T07:37:38.227Z,4.60
2019-01-10T07:40:15.006Z,4.37
2019-01-10T07:42:45.632Z,4.42
2019-01-10T07:45:19.016Z,4.00
2019-01-10T07:47:50.605Z,4.40
2019-01-10T07:50:51.479Z,4.50
2019-01-10T07:53:21.816Z,4.27
2019-01-10T07:55:52.603Z,5.37
2019-01-10T07:58:22.932Z,3.93
2019-01-10T08:00:54.513Z,5.85
2019-01-10T08:03:26.265Z,4.83
2019-01-10T08:05:57.034Z,5.00
2019-01-10T08:08:27.497Z,4.53
2019-01-10T08:10:58.061Z,5.40
2019-01-10T08:13:30.352Z,4.17
2019-01-10T08:16:00.709Z,4.50
2019-01-10T08:18:31.356Z,5.07
2019-01-10T08:21:01.723Z,5.13
2019-01-10T08:23:33.921Z,4.37
2019-01-10T08:26:06.034Z,4.17
2019-01-10T08:28:36.742Z,5.15
2019-01-10T08:31:07.396Z,5.60
2019-01-10T08:33:38.135Z,4.10
2019-01-10T08:36:08.602Z,4.53
2019-01-10T08:38:39.903Z,4.32
2019-01-10T08:41:10.386Z,3.60
2019-01-10T08:43:40.752Z,4.53
2019-01-10T08:46:11.156Z,4.87
2019-01-10T08:48:42.960Z,5.97
2019-01-10T08:51:13.514Z,4.83
2019-01-10T08:53:53.590Z,5.70
2019-01-10T08:56:15.984Z,5.23
2019-01-10T08:58:48.897Z,6.02
2019-01-10T09:01:19.494Z,4.73
2019-01-10T09:03:51.813Z,5.03
2019-01-10T09:06:23.551Z,5.67
2019-01-10T09:08:53.853Z,5.37
2019-01-10T09:11:24.612Z,4.83
2019-01-10T09:13:56.223Z,5.93
2019-01-10T09:16:26.690Z,5.90
2019-01-10T09:18:57.305Z,6.10
2019-01-10T09:21:27.896Z,5.07
2019-01-10T09:23:58.568Z,5.37
2019-01-10T09:26:37.699Z,5.07
2019-01-10T09:29:02.269Z,5.33
2019-01-10T09:31:32.906Z,4.83
2019-01-10T09:34:03.333Z,4.93
2019-01-10T09:36:33.919Z,5.10
2019-01-10T09:39:06.537Z,5.70
2019-01-10T09:41:37.322Z,4.30
2019-01-10T09:44:08.133Z,4.37
2019-01-10T09:46:38.818Z,4.30
2019-01-10T09:49:09.218Z,5.70
2019-01-10T09:51:39.900Z,5.33
2019-01-10T09:54:10.226Z,4.90
2019-01-10T09:56:42.017Z,4.80
2019-01-10T09:59:12.326Z,4.30
2019-01-10T10:01:46.153Z,4.10
2019-01-10T10:04:16.628Z,4.63
2019-01-10T10:06:49.856Z,4.55
2019-01-10T10:09:20.138Z,4.03
2019-01-10T10:11:52.321Z,3.77
2019-01-10T10:14:22.966Z,4.27
2019-01-10T10:16:53.639Z,4.85
2019-01-10T10:19:23.950Z,4.93
2019-01-10T10:21:54.538Z,4.13
2019-01-10T10:24:25.170Z,3.93
2019-01-10T10:26:55.980Z,3.90
2019-01-10T10:29:26.606Z,4.40
2019-01-10T10:31:56.879Z,3.80
2019-01-10T10:34:28.206Z,4.70
2019-01-10T10:36:58.842Z,4.30
2019-01-10T10:39:29.773Z,4.70
2019-01-10T10:42:01.536Z,4.47
2019-01-10T10:44:31.953Z,4.30
2019-01-10T10:47:02.490Z,4.20
2019-01-10T10:49:34.152Z,4.58
2019-01-10T10:52:04.820Z,4.20
2019-01-10T10:54:35.125Z,5.00
2019-01-10T10:57:07.457Z,6.10
2019-01-10T10:59:38.139Z,4.68
2019-01-10T11:02:12.744Z,4.53
2019-01-10T11:04:43.080Z,4.48
2019-01-10T11:07:13.399Z,4.40
2019-01-10T11:09:44.659Z,4.53
2019-01-10T11:12:18.420Z,3.70
2019-01-10T11:14:49.359Z,4.20
2019-01-10T11:17:19.682Z,3.80
2019-01-10T11:19:52.490Z,3.70
2019-01-10T11:22:22.780Z,4.03
2019-01-10T11:24:53.247Z,3.70
2019-01-10T11:27:23.546Z,3.50
2019-01-10T11:29:55.169Z,4.10
2019-01-10T11:32:25.618Z,3.58
2019-01-10T11:34:56.111Z,3.73
2019-01-10T11:37:26.757Z,3.50
2019-01-10T11:39:57.416Z,3.13
2019-01-10T11:42:28.991Z,4.20
2019-01-10T11:45:01.403Z,3.73
2019-01-10T11:47:32.253Z,4.00
2019-01-10T11:50:02.656Z,3.53
2019-01-10T11:52:33.099Z,3.60
2019-01-10T11:55:03.925Z,4.10
2019-01-10T11:57:34.622Z,4.20
2019-01-10T12:00:08.041Z,5.23
2019-01-10T12:02:38.624Z,3.55
2019-01-10T12:05:10.196Z,4.07
2019-01-10T12:07:41.919Z,3.68
2019-01-10T12:10:12.576Z,3.70
2019-01-10T12:12:43.116Z,3.80
2019-01-10T12:15:13.728Z,3.00
2019-01-10T12:17:47.346Z,3.08
2019-01-10T12:20:17.988Z,3.77
2019-01-10T12:22:49.754Z,3.25
2019-01-10T12:25:20.392Z,3.23
2019-01-10T12:27:50.975Z,3.35
2019-01-10T12:30:23.871Z,3.30
2019-01-10T12:32:54.296Z,2.83
2019-01-10T12:35:25.951Z,3.30
2019-01-10T12:37:58.914Z,3.65
2019-01-10T12:40:30.796Z,3.40
2019-01-10T12:43:01.452Z,3.27
2019-01-10T12:45:31.917Z,3.30
2019-01-10T12:48:03.853Z,3.50
2019-01-10T12:50:35.009Z,3.63
2019-01-10T12:53:09.762Z,3.30
2019-01-10T12:55:44.907Z,5.03
2019-01-10T12:58:17.926Z,3.70
2019-01-10T13:00:48.260Z,3.20
2019-01-10T13:03:18.640Z,3.57
2019-01-10T13:05:48.963Z,3.63
2019-01-10T13:08:20.654Z,4.53
2019-01-10T13:10:52.867Z,3.60
2019-01-10T13:13:23.441Z,3.57
2019-01-10T13:15:54.076Z,3.83
2019-01-10T13:18:24.423Z,3.37
2019-01-10T13:20:59.463Z,3.92
2019-01-10T13:23:28.735Z,3.10
2019-01-10T13:25:59.990Z,4.93
2019-01-10T13:28:30.319Z,3.70
2019-01-10T13:31:01.620Z,4.05
2019-01-10T13:33:31.928Z,3.50
2019-01-10T13:36:02.677Z,3.25
2019-01-10T13:38:32.974Z,4.03
2019-01-10T13:41:03.310Z,2.90
2019-01-10T13:43:33.835Z,3.23
2019-01-10T13:46:05.599Z,3.33
2019-01-10T13:48:37.963Z,4.23
2019-01-10T13:51:08.531Z,3.23
2019-01-10T13:53:39.276Z,3.43
2019-01-10T13:56:14.282Z,3.82
2019-01-10T13:58:46.025Z,3.47
2019-01-10T14:01:16.613Z,3.40
2019-01-10T14:03:47.217Z,3.33
2019-01-10T14:06:17.930Z,2.73
2019-01-10T14:08:48.224Z,3.17
2019-01-10T14:11:18.848Z,3.80
2019-01-10T14:13:49.247Z,3.43
2019-01-10T14:16:22.271Z,3.50
2019-01-10T14:18:52.570Z,2.80
2019-01-10T14:21:22.931Z,3.90
2019-01-10T14:23:53.560Z,3.13
2019-01-10T14:26:27.004Z,3.03
2019-01-10T14:28:59.120Z,3.40
2019-01-10T14:31:29.419Z,3.07
2019-01-10T14:33:59.885Z,3.50
2019-01-10T14:36:33.314Z,2.70
2019-01-10T14:39:08.772Z,3.57
2019-01-10T14:41:39.285Z,2.60
2019-01-10T14:44:09.935Z,3.00
2019-01-10T14:46:40.852Z,2.90
2019-01-10T14:49:13.234Z,3.40
2019-01-10T14:51:43.860Z,2.83
2019-01-10T14:54:14.279Z,3.17
2019-01-10T14:56:44.575Z,3.87
2019-01-10T14:59:20.542Z,2.73
2019-01-10T15:01:49.415Z,3.33
2019-01-10T15:04:20.800Z,3.10
2019-01-10T15:06:51.070Z,3.60
2019-01-10T15:09:21.911Z,3.40
2019-01-10T15:11:52.238Z,3.73
2019-01-10T15:14:23.691Z,3.20
2019-01-10T15:16:54.152Z,3.93
2019-01-10T15:19:24.950Z,3.20
2019-01-10T15:21:56.357Z,3.93
2019-01-10T15:24:26.656Z,3.83
2019-01-10T15:26:57.485Z,4.53
2019-01-10T15:29:27.856Z,3.17
2019-01-10T15:31:58.206Z,3.33
2019-01-10T15:34:28.873Z,3.70
2019-01-10T15:37:06.718Z,3.87
2019-01-10T15:39:37.394Z,3.80
2019-01-10T15:42:07.862Z,4.10
2019-01-10T15:44:39.779Z,3.37
2019-01-10T15:47:12.103Z,3.33
2019-01-10T15:49:43.107Z,3.53
2019-01-10T15:52:15.106Z,4.03
2019-01-10T15:54:45.756Z,3.77
2019-01-10T15:57:16.119Z,4.63
2019-01-10T15:59:46.763Z,4.35
2019-01-10T16:02:17.412Z,4.47
2019-01-10T16:04:52.202Z,3.50
2019-01-10T16:07:22.800Z,3.70
2019-01-10T16:09:55.374Z,4.30
2019-01-10T16:12:25.666Z,5.13
2019-01-10T16:14:56.785Z,4.78
2019-01-10T16:17:27.069Z,3.93
2019-01-10T16:19:58.522Z,4.97
2019-01-10T16:22:28.868Z,4.47
2019-01-10T16:25:00.005Z,5.72
2019-01-10T16:27:32.050Z,5.87
2019-01-10T16:30:07.084Z,5.00
2019-01-10T16:32:37.463Z,5.37
2019-01-10T16:35:08.385Z,5.53
2019-01-10T16:37:39.157Z,6.03
2019-01-10T16:40:10.397Z,4.93
2019-01-10T16:42:40.869Z,5.43
2019-01-10T16:45:15.898Z,5.43
2019-01-10T16:47:46.869Z,4.90
2019-01-10T16:50:18.280Z,5.13
2019-01-10T16:52:48.673Z,4.93
2019-01-10T16:55:19.349Z,5.97
2019-01-10T16:57:49.999Z,6.53
2019-01-10T17:00:26.549Z,5.50
2019-01-10T17:02:56.941Z,5.63
2019-01-10T17:05:27.406Z,4.90
2019-01-10T17:07:59.426Z,5.27
2019-01-10T17:10:29.745Z,5.97
2019-01-10T17:15:36.933Z,6.10
2019-01-10T17:18:07.870Z,6.50
2019-01-10T17:20:40.193Z,5.67
2019-01-10T17:23:13.583Z,5.77
2019-01-10T17:25:45.567Z,5.93
2019-01-10T17:28:16.356Z,6.00
2019-01-10T17:30:49.388Z,6.33
2019-01-10T17:33:19.834Z,7.03
2019-01-10T17:35:50.281Z,7.57
2019-01-10T17:38:20.782Z,7.03
2019-01-10T17:40:51.458Z,7.53
2019-01-10T17:43:22.939Z,8.17
2019-01-10T17:46:01.469Z,7.33
2019-01-10T17:48:30.217Z,8.50
2019-01-10T17:51:01.052Z,10.53
2019-01-10T17:53:31.519Z,8.60
2019-01-10T17:56:05.100Z,9.63
2019-01-10T17:58:35.498Z,9.13
2019-01-10T18:01:08.041Z,7.97
2019-01-10T18:03:40.375Z,8.77
2019-01-10T18:06:10.671Z,6.67
2019-01-10T18:08:42.012Z,7.03
2019-01-10T18:11:14.735Z,7.43
2019-01-10T18:13:46.615Z,7.90
2019-01-10T18:16:17.547Z,6.92
2019-01-10T18:18:48.328Z,7.20
2019-01-10T18:21:20.240Z,5.87
2019-01-10T18:23:54.975Z,6.27
2019-01-10T18:26:27.131Z,6.17
2019-01-10T18:28:57.994Z,7.37
2019-01-10T18:31:30.763Z,6.30
2019-01-10T18:34:01.215Z,6.33
2019-01-10T18:36:36.061Z,6.77
2019-01-10T18:39:08.401Z,6.43
2019-01-10T18:41:41.503Z,6.94
2019-01-10T18:44:14.038Z,6.80
2019-01-10T18:46:45.923Z,6.67
2019-01-10T18:49:23.291Z,6.23
2019-01-10T18:51:55.692Z,5.70
2019-01-10T18:54:27.185Z,5.50
2019-01-10T18:56:57.879Z,6.17
2019-01-10T18:59:28.362Z,6.40
2019-01-10T19:01:59.521Z,6.60
2019-01-10T19:04:29.954Z,6.97
2019-01-10T19:07:00.349Z,6.77
2019-01-10T19:09:30.980Z,7.23
2019-01-10T19:12:01.772Z,6.80
2019-01-10T19:14:32.703Z,6.47
2019-01-10T19:17:05.840Z,6.37
2019-01-10T19:19:36.546Z,6.03
2019-01-10T19:22:07.021Z,6.00
2019-01-10T19:24:37.717Z,6.27
2019-01-10T19:27:10.024Z,6.03
2019-01-10T19:29:40.364Z,6.07
2019-01-10T19:32:11.030Z,6.93
2019-01-10T19:34:41.717Z,6.67
2019-01-10T19:37:12.415Z,7.25
2019-01-10T19:39:42.830Z,7.87
2019-01-10T19:42:13.265Z,6.35
2019-01-10T19:44:44.471Z,6.50
2019-01-10T19:47:16.570Z,7.97
2019-01-10T19:49:47.175Z,7.73
2019-01-10T19:52:18.822Z,6.27
2019-01-10T19:54:53.787Z,6.23
2019-01-10T19:57:24.426Z,7.72
2019-01-10T19:59:54.821Z,7.70
2019-01-10T20:02:26.858Z,7.70
2019-01-10T20:04:58.371Z,7.77
2019-01-10T20:07:29.025Z,8.55
2019-01-10T20:09:59.910Z,8.48
2019-01-10T20:12:34.546Z,9.20
2019-01-10T20:15:06.264Z,8.90
2019-01-10T20:17:38.247Z,8.20
2019-01-10T20:20:14.681Z,8.53
2019-01-10T20:22:48.059Z,8.38
2019-01-10T20:25:18.550Z,10.27
2019-01-10T20:27:49.749Z,9.83
2019-01-10T20:30:20.829Z,9.37
2019-01-10T20:32:51.608Z,10.98
2019-01-10T20:35:22.140Z,10.23
2019-01-10T20:37:56.473Z,11.28
2019-01-10T20:40:26.963Z,11.10
2019-01-10T20:42:58.215Z,10.87
2019-01-10T20:45:30.168Z,9.97
2019-01-10T20:48:01.525Z,10.17
2019-01-10T20:50:32.307Z,9.53
2019-01-10T20:53:03.959Z,9.73
2019-01-10T20:55:36.208Z,7.87
2019-01-10T20:58:07.891Z,6.97
2019-01-10T21:00:40.201Z,7.23
2019-01-10T21:03:10.610Z,5.60
2019-01-10T21:05:47.952Z,5.90
2019-01-10T21:08:18.642Z,5.20
2019-01-10T21:10:48.990Z,5.70
2019-01-10T21:13:20.189Z,5.22
2019-01-10T21:15:53.478Z,4.97
2019-01-10T21:18:28.637Z,4.87
2019-01-10T21:20:58.280Z,5.13
2019-01-10T21:23:29.343Z,5.00
2019-01-10T21:25:59.997Z,4.50
2019-01-10T21:28:30.705Z,6.50
2019-01-10T21:31:01.672Z,6.83
2019-01-10T21:33:33.813Z,5.70
2019-01-10T21:36:04.751Z,5.20
2019-01-10T21:38:35.277Z,5.73
2019-01-10T21:41:06.396Z,5.65
2019-01-10T21:43:36.962Z,5.70
2019-01-10T21:46:07.322Z,5.90
2019-01-10T21:48:38.068Z,6.37
2019-01-10T21:51:08.704Z,6.60
2019-01-10T21:53:39.195Z,6.43
2019-01-10T21:56:11.768Z,6.75
2019-01-10T21:58:42.085Z,7.70
2019-01-10T22:01:13.697Z,8.15
2019-01-10T22:03:44.484Z,7.50
2019-01-10T22:06:20.482Z,8.46
2019-01-10T22:08:50.771Z,8.50
2019-01-10T22:11:38.330Z,7.80
2019-01-10T22:14:01.390Z,7.42
2019-01-10T22:16:31.948Z,7.12
2019-01-10T22:19:02.328Z,6.30
2019-01-10T22:21:33.060Z,7.95
2019-01-10T22:24:03.528Z,7.93
2019-01-10T22:26:34.340Z,6.87
2019-01-10T22:29:07.812Z,6.80
2019-01-10T22:31:38.496Z,7.43
2019-01-10T22:34:14.794Z,7.43
2019-01-10T22:36:45.475Z,7.80
2019-01-10T22:39:16.158Z,6.80
2019-01-10T22:41:47.931Z,7.75
2019-01-10T22:44:18.291Z,7.77
2019-01-10T22:46:50.419Z,7.50
2019-01-10T22:49:20.822Z,7.60
2019-01-10T22:51:55.390Z,9.13
2019-01-10T22:54:27.226Z,8.43
2019-01-10T22:57:01.063Z,9.55
2019-01-10T22:59:31.429Z,10.57
2019-01-10T23:02:02.323Z,10.23
2019-01-10T23:04:36.672Z,11.00
2019-01-10T23:07:22.090Z,11.07
2019-01-10T23:09:54.194Z,11.40
2019-01-10T23:12:33.435Z,11.12
2019-01-10T23:15:30.277Z,11.30
2019-01-10T23:18:02.567Z,9.73
2019-01-10T23:20:34.214Z,9.83
2019-01-10T23:23:07.592Z,9.60
2019-01-10T23:25:37.978Z,8.43
2019-01-10T23:28:13.263Z,8.50
2019-01-10T23:30:48.464Z,8.80
2019-01-10T23:33:21.703Z,8.17
2019-01-10T23:35:57.764Z,8.58
2019-01-10T23:38:28.505Z,7.70
2019-01-10T23:40:59.597Z,7.43
2019-01-10T23:43:30.305Z,7.07
2019-01-10T23:46:00.903Z,7.55
2019-01-10T23:48:31.540Z,8.00
2019-01-10T23:51:02.213Z,7.60
2019-01-10T23:53:32.628Z,8.03
2019-01-10T23:56:04.032Z,8.30
2019-01-10T23:58:36.972Z,7.73
